map of YCO home
YCO - Airport
Location
City:  Kugluktuk, Kitikmeot, Nunavut, Canada
Near (Alt.):Coppermine
Name:Kugluktuk Airport
ICAO:CYCO
IATA:YCO

Details
Type:Airport (Airfield)
Use:Public/Civil
Latitude:6749'00"N (67.816667)
Longitude:11508'38"W (-115.143888)
Elevation:74 ft (23 m)
Variation:17.46E (WMM2015v2 magnetic declination)
-0.27 annual change
Runways:1
Longest:5502 ft (1677 m)

Time
Time Zone:UTC-7 (DST-6)
Local Time:

Weather
METAR:CYCO 041400Z 34002KT 15SM IC SKC M39/M43 A3045 RMK FROIN SLP319
TAF:CYCO 041238Z 0413/0501 VRB03KT P6SM SKC
RMK NXT FCST BY 041900Z

Related Locations
Nearby:
Farthest:YWKS: 11209 mi / 18039 km
Wilkins Runway (Casey), Upper Peterson Glacier, AQ

Find:

   beyond  
but within

Other Information
Maps:
NOTAMs:
Links:
Sources:

  
  • flag of Canada
  • flag of Nunavut
  

Airport Diagram

Airport diagram for YCO

Airport diagram PDF

Sectional Chart

Flight Planning
at skyvector.com

Satellite Image

Google Maps Satellite view

 

Copyright © 2004-2019 Karl L. Swartz. All rights reserved.
The Great Circle Mapper name and logo are trademarks of the Great Circle Mapper.
All other trademarks mentioned herein belong to their respective owners.
Please see credits for attibutions and further copyright information.

  Follow gcmap on Facebook Follow gcmap on Twitter GCmap on LinkedIn

hCard Microformat

Geo Microformat